sensor_id;sensor_type;location;lat;lon;timestamp;P1;durP1;ratioP1;P2;durP2;ratioP2
5953;SDS011;3002;42.642;24.812;2022-12-11T00:01:09;5.20;;;0.97;;
5953;SDS011;3002;42.642;24.812;2022-12-11T00:03:36;13.07;;;2.00;;
5953;SDS011;3002;42.642;24.812;2022-12-11T00:06:08;15.30;;;2.70;;
5953;SDS011;3002;42.642;24.812;2022-12-11T00:08:35;17.47;;;3.27;;
5953;SDS011;3002;42.642;24.812;2022-12-11T00:11:01;8.07;;;1.20;;
5953;SDS011;3002;42.642;24.812;2022-12-11T00:13:27;17.07;;;2.60;;
5953;SDS011;3002;42.642;24.812;2022-12-11T00:15:53;3.43;;;0.87;;
5953;SDS011;3002;42.642;24.812;2022-12-11T00:18:19;6.00;;;1.60;;
5953;SDS011;3002;42.642;24.812;2022-12-11T00:20:45;4.00;;;1.03;;
5953;SDS011;3002;42.642;24.812;2022-12-11T00:23:10;3.67;;;0.93;;
5953;SDS011;3002;42.642;24.812;2022-12-11T00:25:42;5.20;;;1.10;;
5953;SDS011;3002;42.642;24.812;2022-12-11T00:28:10;10.80;;;2.87;;
5953;SDS011;3002;42.642;24.812;2022-12-11T00:30:40;5.73;;;1.07;;
5953;SDS011;3002;42.642;24.812;2022-12-11T00:33:07;8.93;;;1.60;;
5953;SDS011;3002;42.642;24.812;2022-12-11T00:35:36;11.17;;;2.17;;
5953;SDS011;3002;42.642;24.812;2022-12-11T00:38:06;4.47;;;0.87;;
5953;SDS011;3002;42.642;24.812;2022-12-11T00:40:33;19.17;;;2.90;;
5953;SDS011;3002;42.642;24.812;2022-12-11T00:42:59;7.60;;;1.93;;
5953;SDS011;3002;42.642;24.812;2022-12-11T00:45:25;16.20;;;2.73;;
5953;SDS011;3002;42.642;24.812;2022-12-11T00:47:51;6.33;;;1.83;;
5953;SDS011;3002;42.642;24.812;2022-12-11T00:50:16;7.20;;;1.93;;
5953;SDS011;3002;42.642;24.812;2022-12-11T00:52:42;5.33;;;1.33;;
5953;SDS011;3002;42.642;24.812;2022-12-11T00:55:08;9.77;;;2.77;;
5953;SDS011;3002;42.642;24.812;2022-12-11T00:57:33;9.70;;;2.10;;
5953;SDS011;3002;42.642;24.812;2022-12-11T00:59:58;10.10;;;1.97;;
5953;SDS011;3002;42.642;24.812;2022-12-11T01:02:24;5.53;;;1.90;;
5953;SDS011;3002;42.642;24.812;2022-12-11T01:04:49;4.43;;;1.10;;
5953;SDS011;3002;42.642;24.812;2022-12-11T01:07:15;14.33;;;2.63;;
5953;SDS011;3002;42.642;24.812;2022-12-11T01:09:40;9.07;;;1.97;;
5953;SDS011;3002;42.642;24.812;2022-12-11T01:12:24;14.80;;;2.43;;
5953;SDS011;3002;42.642;24.812;2022-12-11T01:14:52;7.17;;;1.53;;
5953;SDS011;3002;42.642;24.812;2022-12-11T01:17:18;9.93;;;1.97;;
5953;SDS011;3002;42.642;24.812;2022-12-11T01:19:43;8.40;;;1.63;;
5953;SDS011;3002;42.642;24.812;2022-12-11T01:22:09;3.43;;;0.70;;
5953;SDS011;3002;42.642;24.812;2022-12-11T01:24:34;5.43;;;1.13;;
5953;SDS011;3002;42.642;24.812;2022-12-11T01:27:00;9.93;;;2.43;;
5953;SDS011;3002;42.642;24.812;2022-12-11T01:29:25;9.10;;;1.50;;
5953;SDS011;3002;42.642;24.812;2022-12-11T01:31:50;4.30;;;1.20;;
5953;SDS011;3002;42.642;24.812;2022-12-11T01:34:16;7.90;;;1.73;;
5953;SDS011;3002;42.642;24.812;2022-12-11T01:36:41;12.43;;;2.50;;
5953;SDS011;3002;42.642;24.812;2022-12-11T01:39:07;10.33;;;1.80;;
5953;SDS011;3002;42.642;24.812;2022-12-11T01:41:33;7.33;;;1.23;;
5953;SDS011;3002;42.642;24.812;2022-12-11T01:44:04;14.03;;;3.03;;
5953;SDS011;3002;42.642;24.812;2022-12-11T01:46:32;10.43;;;1.67;;
5953;SDS011;3002;42.642;24.812;2022-12-11T01:49:00;10.37;;;1.60;;
5953;SDS011;3002;42.642;24.812;2022-12-11T01:51:28;12.43;;;2.37;;
5953;SDS011;3002;42.642;24.812;2022-12-11T01:53:58;5.07;;;1.50;;
5953;SDS011;3002;42.642;24.812;2022-12-11T01:56:26;14.30;;;2.20;;
5953;SDS011;3002;42.642;24.812;2022-12-11T01:58:56;5.33;;;1.17;;
5953;SDS011;3002;42.642;24.812;2022-12-11T02:01:27;5.80;;;1.50;;
5953;SDS011;3002;42.642;24.812;2022-12-11T02:03:57;7.73;;;2.40;;
5953;SDS011;3002;42.642;24.812;2022-12-11T02:06:43;13.30;;;2.03;;
5953;SDS011;3002;42.642;24.812;2022-12-11T02:09:14;21.60;;;2.60;;
5953;SDS011;3002;42.642;24.812;2022-12-11T02:11:46;11.23;;;1.03;;
5953;SDS011;3002;42.642;24.812;2022-12-11T02:14:24;13.73;;;2.50;;
5953;SDS011;3002;42.642;24.812;2022-12-11T02:16:55;9.87;;;2.10;;
5953;SDS011;3002;42.642;24.812;2022-12-11T02:22:12;3.73;;;0.97;;
5953;SDS011;3002;42.642;24.812;2022-12-11T02:27:52;6.80;;;1.30;;
5953;SDS011;3002;42.642;24.812;2022-12-11T02:30:23;5.30;;;1.20;;
5953;SDS011;3002;42.642;24.812;2022-12-11T02:32:56;7.77;;;1.33;;
5953;SDS011;3002;42.642;24.812;2022-12-11T02:35:39;5.93;;;1.17;;
5953;SDS011;3002;42.642;24.812;2022-12-11T02:38:28;19.53;;;2.10;;
5953;SDS011;3002;42.642;24.812;2022-12-11T02:41:00;12.33;;;2.00;;
5953;SDS011;3002;42.642;24.812;2022-12-11T02:43:28;21.13;;;3.43;;
5953;SDS011;3002;42.642;24.812;2022-12-11T02:45:56;13.40;;;1.87;;
5953;SDS011;3002;42.642;24.812;2022-12-11T02:48:23;6.93;;;1.27;;
5953;SDS011;3002;42.642;24.812;2022-12-11T02:50:49;14.37;;;1.90;;
5953;SDS011;3002;42.642;24.812;2022-12-11T02:53:19;9.97;;;1.67;;
5953;SDS011;3002;42.642;24.812;2022-12-11T02:55:49;3.10;;;0.80;;
5953;SDS011;3002;42.642;24.812;2022-12-11T02:58:21;4.83;;;1.67;;
5953;SDS011;3002;42.642;24.812;2022-12-11T03:00:50;14.40;;;2.03;;
5953;SDS011;3002;42.642;24.812;2022-12-11T03:03:15;4.23;;;0.80;;
5953;SDS011;3002;42.642;24.812;2022-12-11T03:05:41;11.10;;;1.90;;
5953;SDS011;3002;42.642;24.812;2022-12-11T03:08:07;9.57;;;1.60;;
5953;SDS011;3002;42.642;24.812;2022-12-11T03:10:32;13.00;;;2.13;;
5953;SDS011;3002;42.642;24.812;2022-12-11T03:12:58;13.60;;;3.10;;
5953;SDS011;3002;42.642;24.812;2022-12-11T03:15:30;5.53;;;1.10;;
5953;SDS011;3002;42.642;24.812;2022-12-11T03:18:08;5.70;;;1.20;;
5953;SDS011;3002;42.642;24.812;2022-12-11T03:20:46;3.73;;;1.00;;
5953;SDS011;3002;42.642;24.812;2022-12-11T03:23:43;7.10;;;1.60;;
5953;SDS011;3002;42.642;24.812;2022-12-11T03:26:11;14.57;;;2.10;;
5953;SDS011;3002;42.642;24.812;2022-12-11T03:31:24;14.17;;;2.20;;
5953;SDS011;3002;42.642;24.812;2022-12-11T03:33:56;4.63;;;1.20;;
5953;SDS011;3002;42.642;24.812;2022-12-11T03:36:26;3.63;;;0.70;;
5953;SDS011;3002;42.642;24.812;2022-12-11T03:38:57;6.60;;;1.53;;
5953;SDS011;3002;42.642;24.812;2022-12-11T03:41:25;15.83;;;2.03;;
5953;SDS011;3002;42.642;24.812;2022-12-11T03:43:55;4.67;;;0.93;;
5953;SDS011;3002;42.642;24.812;2022-12-11T03:46:23;12.60;;;1.47;;
5953;SDS011;3002;42.642;24.812;2022-12-11T03:48:57;10.00;;;1.80;;
5953;SDS011;3002;42.642;24.812;2022-12-11T03:51:27;8.37;;;1.67;;
5953;SDS011;3002;42.642;24.812;2022-12-11T03:53:55;15.20;;;2.53;;
5953;SDS011;3002;42.642;24.812;2022-12-11T03:56:21;14.20;;;2.70;;
5953;SDS011;3002;42.642;24.812;2022-12-11T03:58:50;10.30;;;2.03;;
5953;SDS011;3002;42.642;24.812;2022-12-11T04:01:16;17.23;;;3.23;;
5953;SDS011;3002;42.642;24.812;2022-12-11T04:03:41;9.40;;;2.27;;
5953;SDS011;3002;42.642;24.812;2022-12-11T04:06:07;15.90;;;2.20;;
5953;SDS011;3002;42.642;24.812;2022-12-11T04:08:32;16.10;;;2.97;;
5953;SDS011;3002;42.642;24.812;2022-12-11T04:10:58;5.63;;;1.57;;
5953;SDS011;3002;42.642;24.812;2022-12-11T04:13:42;27.77;;;7.80;;
5953;SDS011;3002;42.642;24.812;2022-12-11T04:16:08;19.23;;;3.53;;
5953;SDS011;3002;42.642;24.812;2022-12-11T04:18:34;10.30;;;2.50;;
5953;SDS011;3002;42.642;24.812;2022-12-11T04:21:18;19.63;;;3.77;;
5953;SDS011;3002;42.642;24.812;2022-12-11T04:24:02;28.87;;;3.13;;
5953;SDS011;3002;42.642;24.812;2022-12-11T04:26:43;10.73;;;2.30;;
5953;SDS011;3002;42.642;24.812;2022-12-11T04:29:10;18.83;;;3.37;;
5953;SDS011;3002;42.642;24.812;2022-12-11T04:31:36;16.13;;;3.63;;
5953;SDS011;3002;42.642;24.812;2022-12-11T04:34:02;14.20;;;2.90;;
5953;SDS011;3002;42.642;24.812;2022-12-11T04:36:27;15.63;;;3.67;;
5953;SDS011;3002;42.642;24.812;2022-12-11T04:38:53;11.67;;;3.87;;
5953;SDS011;3002;42.642;24.812;2022-12-11T04:41:18;17.63;;;3.87;;
5953;SDS011;3002;42.642;24.812;2022-12-11T04:43:44;8.67;;;2.17;;
5953;SDS011;3002;42.642;24.812;2022-12-11T04:46:11;9.50;;;2.57;;
5953;SDS011;3002;42.642;24.812;2022-12-11T04:48:39;12.13;;;2.80;;
5953;SDS011;3002;42.642;24.812;2022-12-11T04:51:05;4.33;;;1.00;;
5953;SDS011;3002;42.642;24.812;2022-12-11T04:53:31;11.57;;;2.33;;
5953;SDS011;3002;42.642;24.812;2022-12-11T04:55:57;8.30;;;1.53;;
5953;SDS011;3002;42.642;24.812;2022-12-11T04:58:23;6.57;;;2.20;;
5953;SDS011;3002;42.642;24.812;2022-12-11T05:00:49;5.77;;;1.77;;
5953;SDS011;3002;42.642;24.812;2022-12-11T05:03:15;16.90;;;3.40;;
5953;SDS011;3002;42.642;24.812;2022-12-11T05:05:46;17.13;;;3.43;;
5953;SDS011;3002;42.642;24.812;2022-12-11T05:08:13;15.33;;;3.47;;
5953;SDS011;3002;42.642;24.812;2022-12-11T05:10:38;5.20;;;1.90;;
5953;SDS011;3002;42.642;24.812;2022-12-11T05:13:03;8.83;;;2.43;;
5953;SDS011;3002;42.642;24.812;2022-12-11T05:15:29;7.43;;;2.17;;
5953;SDS011;3002;42.642;24.812;2022-12-11T05:17:54;16.43;;;3.77;;
5953;SDS011;3002;42.642;24.812;2022-12-11T05:20:20;13.73;;;3.57;;
5953;SDS011;3002;42.642;24.812;2022-12-11T05:22:45;15.37;;;4.50;;
5953;SDS011;3002;42.642;24.812;2022-12-11T05:25:11;17.33;;;4.33;;
5953;SDS011;3002;42.642;24.812;2022-12-11T05:27:36;11.87;;;2.70;;
5953;SDS011;3002;42.642;24.812;2022-12-11T05:30:02;18.83;;;4.20;;
5953;SDS011;3002;42.642;24.812;2022-12-11T05:32:29;14.23;;;3.43;;
5953;SDS011;3002;42.642;24.812;2022-12-11T05:34:54;19.20;;;4.23;;
5953;SDS011;3002;42.642;24.812;2022-12-11T05:37:20;18.23;;;5.40;;
5953;SDS011;3002;42.642;24.812;2022-12-11T05:39:45;14.03;;;3.57;;
5953;SDS011;3002;42.642;24.812;2022-12-11T05:42:11;11.67;;;2.67;;
5953;SDS011;3002;42.642;24.812;2022-12-11T05:44:36;9.00;;;1.93;;
5953;SDS011;3002;42.642;24.812;2022-12-11T05:47:02;10.07;;;2.63;;
5953;SDS011;3002;42.642;24.812;2022-12-11T05:49:27;14.87;;;3.60;;
5953;SDS011;3002;42.642;24.812;2022-12-11T05:51:53;13.80;;;3.40;;
5953;SDS011;3002;42.642;24.812;2022-12-11T05:54:18;10.33;;;2.73;;
5953;SDS011;3002;42.642;24.812;2022-12-11T05:56:44;18.97;;;4.07;;
5953;SDS011;3002;42.642;24.812;2022-12-11T05:59:09;13.50;;;2.70;;
5953;SDS011;3002;42.642;24.812;2022-12-11T06:01:39;12.10;;;2.73;;
5953;SDS011;3002;42.642;24.812;2022-12-11T06:04:07;14.57;;;2.87;;
5953;SDS011;3002;42.642;24.812;2022-12-11T06:06:37;10.83;;;2.67;;
5953;SDS011;3002;42.642;24.812;2022-12-11T06:09:04;11.60;;;3.00;;
5953;SDS011;3002;42.642;24.812;2022-12-11T06:11:31;17.30;;;4.03;;
5953;SDS011;3002;42.642;24.812;2022-12-11T06:13:59;12.50;;;3.60;;
5953;SDS011;3002;42.642;24.812;2022-12-11T06:16:25;17.80;;;3.73;;
5953;SDS011;3002;42.642;24.812;2022-12-11T06:18:51;28.50;;;6.23;;
5953;SDS011;3002;42.642;24.812;2022-12-11T06:21:17;17.33;;;3.43;;
5953;SDS011;3002;42.642;24.812;2022-12-11T06:23:48;18.57;;;3.90;;
5953;SDS011;3002;42.642;24.812;2022-12-11T06:26:16;19.57;;;4.63;;
5953;SDS011;3002;42.642;24.812;2022-12-11T06:28:43;16.30;;;4.20;;
5953;SDS011;3002;42.642;24.812;2022-12-11T06:31:09;13.40;;;3.40;;
5953;SDS011;3002;42.642;24.812;2022-12-11T06:33:35;16.33;;;4.00;;
5953;SDS011;3002;42.642;24.812;2022-12-11T06:36:04;9.70;;;3.13;;
5953;SDS011;3002;42.642;24.812;2022-12-11T06:38:35;21.03;;;3.70;;
5953;SDS011;3002;42.642;24.812;2022-12-11T06:41:01;11.77;;;3.87;;
5953;SDS011;3002;42.642;24.812;2022-12-11T06:43:31;32.43;;;8.97;;
5953;SDS011;3002;42.642;24.812;2022-12-11T06:45:58;14.83;;;5.43;;
5953;SDS011;3002;42.642;24.812;2022-12-11T06:48:24;24.27;;;7.60;;
5953;SDS011;3002;42.642;24.812;2022-12-11T06:50:49;19.13;;;8.17;;
5953;SDS011;3002;42.642;24.812;2022-12-11T06:53:15;24.27;;;8.47;;
5953;SDS011;3002;42.642;24.812;2022-12-11T06:55:41;18.63;;;6.53;;
5953;SDS011;3002;42.642;24.812;2022-12-11T06:58:07;32.47;;;9.97;;
5953;SDS011;3002;42.642;24.812;2022-12-11T07:00:35;46.33;;;12.83;;
5953;SDS011;3002;42.642;24.812;2022-12-11T07:03:01;34.47;;;13.00;;
5953;SDS011;3002;42.642;24.812;2022-12-11T07:05:27;43.40;;;14.50;;
5953;SDS011;3002;42.642;24.812;2022-12-11T07:07:53;29.70;;;10.30;;
5953;SDS011;3002;42.642;24.812;2022-12-11T07:10:19;46.97;;;17.60;;
5953;SDS011;3002;42.642;24.812;2022-12-11T07:12:44;52.60;;;16.63;;
5953;SDS011;3002;42.642;24.812;2022-12-11T07:15:10;32.40;;;13.50;;
5953;SDS011;3002;42.642;24.812;2022-12-11T07:17:35;39.23;;;14.77;;
5953;SDS011;3002;42.642;24.812;2022-12-11T07:20:01;29.90;;;11.87;;
5953;SDS011;3002;42.642;24.812;2022-12-11T07:22:27;47.03;;;15.30;;
5953;SDS011;3002;42.642;24.812;2022-12-11T07:24:53;42.90;;;16.53;;
5953;SDS011;3002;42.642;24.812;2022-12-11T07:27:18;36.00;;;13.80;;
5953;SDS011;3002;42.642;24.812;2022-12-11T07:29:44;30.43;;;13.00;;
5953;SDS011;3002;42.642;24.812;2022-12-11T07:32:09;45.73;;;14.90;;
5953;SDS011;3002;42.642;24.812;2022-12-11T07:34:35;35.53;;;12.97;;
5953;SDS011;3002;42.642;24.812;2022-12-11T07:37:00;56.37;;;21.90;;
5953;SDS011;3002;42.642;24.812;2022-12-11T07:39:26;41.70;;;13.60;;
5953;SDS011;3002;42.642;24.812;2022-12-11T07:41:51;25.50;;;11.40;;
5953;SDS011;3002;42.642;24.812;2022-12-11T07:44:17;36.43;;;14.30;;
5953;SDS011;3002;42.642;24.812;2022-12-11T07:46:43;40.50;;;14.77;;
5953;SDS011;3002;42.642;24.812;2022-12-11T07:49:08;41.07;;;14.10;;
5953;SDS011;3002;42.642;24.812;2022-12-11T07:51:35;32.70;;;11.60;;
5953;SDS011;3002;42.642;24.812;2022-12-11T07:54:05;37.83;;;10.37;;
5953;SDS011;3002;42.642;24.812;2022-12-11T07:56:33;14.30;;;5.10;;
5953;SDS011;3002;42.642;24.812;2022-12-11T07:59:00;17.80;;;7.37;;
5953;SDS011;3002;42.642;24.812;2022-12-11T08:01:36;21.57;;;5.37;;
5953;SDS011;3002;42.642;24.812;2022-12-11T08:04:03;18.13;;;5.93;;
5953;SDS011;3002;42.642;24.812;2022-12-11T08:06:32;21.90;;;7.17;;
5953;SDS011;3002;42.642;24.812;2022-12-11T08:08:59;29.60;;;9.50;;
5953;SDS011;3002;42.642;24.812;2022-12-11T08:11:26;23.80;;;6.27;;
5953;SDS011;3002;42.642;24.812;2022-12-11T08:13:52;25.03;;;9.00;;
5953;SDS011;3002;42.642;24.812;2022-12-11T08:16:18;16.83;;;4.83;;
5953;SDS011;3002;42.642;24.812;2022-12-11T08:18:44;15.07;;;4.10;;
5953;SDS011;3002;42.642;24.812;2022-12-11T08:23:40;14.10;;;3.80;;
5953;SDS011;3002;42.642;24.812;2022-12-11T08:26:07;13.63;;;4.80;;
5953;SDS011;3002;42.642;24.812;2022-12-11T08:28:33;10.77;;;4.40;;
5953;SDS011;3002;42.642;24.812;2022-12-11T08:30:59;17.27;;;4.30;;
5953;SDS011;3002;42.642;24.812;2022-12-11T08:33:25;21.60;;;5.73;;
5953;SDS011;3002;42.642;24.812;2022-12-11T08:35:50;35.80;;;8.93;;
5953;SDS011;3002;42.642;24.812;2022-12-11T08:38:16;25.57;;;7.47;;
5953;SDS011;3002;42.642;24.812;2022-12-11T08:40:42;27.00;;;7.93;;
5953;SDS011;3002;42.642;24.812;2022-12-11T08:43:07;16.33;;;5.73;;
5953;SDS011;3002;42.642;24.812;2022-12-11T08:45:33;17.43;;;5.80;;
5953;SDS011;3002;42.642;24.812;2022-12-11T08:47:58;19.93;;;5.40;;
5953;SDS011;3002;42.642;24.812;2022-12-11T08:50:24;13.27;;;4.07;;
5953;SDS011;3002;42.642;24.812;2022-12-11T08:52:50;9.23;;;3.40;;
5953;SDS011;3002;42.642;24.812;2022-12-11T08:55:17;9.53;;;2.80;;
5953;SDS011;3002;42.642;24.812;2022-12-11T08:57:43;16.33;;;4.00;;
5953;SDS011;3002;42.642;24.812;2022-12-11T09:00:10;13.10;;;3.67;;
5953;SDS011;3002;42.642;24.812;2022-12-11T09:02:36;24.03;;;4.93;;
5953;SDS011;3002;42.642;24.812;2022-12-11T09:05:02;16.07;;;4.13;;
5953;SDS011;3002;42.642;24.812;2022-12-11T09:07:31;17.50;;;3.53;;
5953;SDS011;3002;42.642;24.812;2022-12-11T09:09:58;19.40;;;3.70;;
5953;SDS011;3002;42.642;24.812;2022-12-11T09:12:23;13.03;;;4.57;;
5953;SDS011;3002;42.642;24.812;2022-12-11T09:14:49;11.80;;;3.20;;
5953;SDS011;3002;42.642;24.812;2022-12-11T09:17:14;8.43;;;2.50;;
5953;SDS011;3002;42.642;24.812;2022-12-11T09:19:40;12.47;;;3.10;;
5953;SDS011;3002;42.642;24.812;2022-12-11T09:22:05;14.50;;;2.73;;
5953;SDS011;3002;42.642;24.812;2022-12-11T09:24:30;14.27;;;3.00;;
5953;SDS011;3002;42.642;24.812;2022-12-11T09:26:56;79.60;;;18.90;;
5953;SDS011;3002;42.642;24.812;2022-12-11T09:29:22;19.90;;;4.37;;
5953;SDS011;3002;42.642;24.812;2022-12-11T09:31:47;13.47;;;3.00;;
5953;SDS011;3002;42.642;24.812;2022-12-11T09:34:13;15.00;;;3.00;;
5953;SDS011;3002;42.642;24.812;2022-12-11T09:36:40;10.17;;;2.50;;
5953;SDS011;3002;42.642;24.812;2022-12-11T09:39:07;10.30;;;1.80;;
5953;SDS011;3002;42.642;24.812;2022-12-11T09:41:44;9.87;;;1.90;;
5953;SDS011;3002;42.642;24.812;2022-12-11T09:44:41;20.70;;;3.50;;
5953;SDS011;3002;42.642;24.812;2022-12-11T09:47:26;10.37;;;4.10;;
5953;SDS011;3002;42.642;24.812;2022-12-11T09:55:02;11.23;;;2.80;;
5953;SDS011;3002;42.642;24.812;2022-12-11T09:57:52;10.07;;;2.47;;
5953;SDS011;3002;42.642;24.812;2022-12-11T10:00:23;14.40;;;3.47;;
5953;SDS011;3002;42.642;24.812;2022-12-11T10:05:40;25.53;;;4.00;;
5953;SDS011;3002;42.642;24.812;2022-12-11T10:16:51;10.77;;;2.20;;
5953;SDS011;3002;42.642;24.812;2022-12-11T10:19:25;4.57;;;1.27;;
5953;SDS011;3002;42.642;24.812;2022-12-11T10:21:56;9.77;;;2.20;;
5953;SDS011;3002;42.642;24.812;2022-12-11T10:24:26;35.67;;;7.17;;
5953;SDS011;3002;42.642;24.812;2022-12-11T10:26:59;25.93;;;5.03;;
5953;SDS011;3002;42.642;24.812;2022-12-11T10:29:37;14.60;;;3.33;;
5953;SDS011;3002;42.642;24.812;2022-12-11T10:32:03;9.53;;;1.70;;
5953;SDS011;3002;42.642;24.812;2022-12-11T10:34:33;39.47;;;13.43;;
5953;SDS011;3002;42.642;24.812;2022-12-11T10:37:00;10.33;;;2.93;;
5953;SDS011;3002;42.642;24.812;2022-12-11T10:39:26;9.17;;;2.20;;
5953;SDS011;3002;42.642;24.812;2022-12-11T10:41:53;12.23;;;2.67;;
5953;SDS011;3002;42.642;24.812;2022-12-11T10:47:09;8.80;;;2.70;;
5953;SDS011;3002;42.642;24.812;2022-12-11T10:49:43;14.83;;;2.40;;
5953;SDS011;3002;42.642;24.812;2022-12-11T10:52:27;6.03;;;1.43;;
5953;SDS011;3002;42.642;24.812;2022-12-11T10:55:03;9.97;;;1.93;;
5953;SDS011;3002;42.642;24.812;2022-12-11T10:57:33;9.43;;;2.30;;
5953;SDS011;3002;42.642;24.812;2022-12-11T11:00:03;4.80;;;0.90;;
5953;SDS011;3002;42.642;24.812;2022-12-11T11:02:35;8.90;;;2.77;;
5953;SDS011;3002;42.642;24.812;2022-12-11T11:05:15;9.97;;;3.13;;
5953;SDS011;3002;42.642;24.812;2022-12-11T11:08:01;17.40;;;3.10;;
5953;SDS011;3002;42.642;24.812;2022-12-11T11:10:50;13.07;;;2.17;;
5953;SDS011;3002;42.642;24.812;2022-12-11T11:13:21;10.70;;;1.70;;
5953;SDS011;3002;42.642;24.812;2022-12-11T11:15:48;12.27;;;2.47;;
5953;SDS011;3002;42.642;24.812;2022-12-11T11:18:22;6.27;;;1.47;;
5953;SDS011;3002;42.642;24.812;2022-12-11T11:20:51;17.33;;;4.00;;
5953;SDS011;3002;42.642;24.812;2022-12-11T11:23:16;9.97;;;2.67;;
5953;SDS011;3002;42.642;24.812;2022-12-11T11:26:01;41.57;;;16.80;;
5953;SDS011;3002;42.642;24.812;2022-12-11T11:28:34;6.40;;;1.37;;
5953;SDS011;3002;42.642;24.812;2022-12-11T11:31:10;5.67;;;1.17;;
5953;SDS011;3002;42.642;24.812;2022-12-11T11:33:44;6.07;;;2.03;;
5953;SDS011;3002;42.642;24.812;2022-12-11T11:36:37;14.70;;;2.07;;
5953;SDS011;3002;42.642;24.812;2022-12-11T11:39:06;6.27;;;1.23;;
5953;SDS011;3002;42.642;24.812;2022-12-11T11:41:45;4.50;;;0.80;;
5953;SDS011;3002;42.642;24.812;2022-12-11T11:44:13;7.03;;;1.50;;
5953;SDS011;3002;42.642;24.812;2022-12-11T11:46:51;8.67;;;2.33;;
5953;SDS011;3002;42.642;24.812;2022-12-11T11:52:12;12.23;;;2.20;;
5953;SDS011;3002;42.642;24.812;2022-12-11T11:54:55;8.17;;;1.80;;
5953;SDS011;3002;42.642;24.812;2022-12-11T12:00:06;7.33;;;1.40;;
5953;SDS011;3002;42.642;24.812;2022-12-11T12:02:49;8.20;;;2.03;;
5953;SDS011;3002;42.642;24.812;2022-12-11T12:05:49;5.33;;;1.00;;
5953;SDS011;3002;42.642;24.812;2022-12-11T12:11:00;5.73;;;1.23;;
5953;SDS011;3002;42.642;24.812;2022-12-11T12:13:44;10.33;;;1.40;;
5953;SDS011;3002;42.642;24.812;2022-12-11T12:16:19;10.80;;;1.97;;
5953;SDS011;3002;42.642;24.812;2022-12-11T12:19:07;5.70;;;1.47;;
5953;SDS011;3002;42.642;24.812;2022-12-11T12:21:37;8.37;;;2.03;;
5953;SDS011;3002;42.642;24.812;2022-12-11T12:26:45;9.90;;;2.03;;
5953;SDS011;3002;42.642;24.812;2022-12-11T12:32:20;7.10;;;2.10;;
5953;SDS011;3002;42.642;24.812;2022-12-11T12:34:55;18.30;;;3.83;;
5953;SDS011;3002;42.642;24.812;2022-12-11T12:37:31;8.90;;;2.50;;
5953;SDS011;3002;42.642;24.812;2022-12-11T12:45:40;22.70;;;7.93;;
5953;SDS011;3002;42.642;24.812;2022-12-11T12:48:15;13.63;;;4.17;;
5953;SDS011;3002;42.642;24.812;2022-12-11T12:50:42;19.27;;;6.60;;
5953;SDS011;3002;42.642;24.812;2022-12-11T12:53:14;14.23;;;5.17;;
5953;SDS011;3002;42.642;24.812;2022-12-11T12:55:43;7.93;;;2.80;;
5953;SDS011;3002;42.642;24.812;2022-12-11T12:58:30;82.90;;;29.67;;
5953;SDS011;3002;42.642;24.812;2022-12-11T13:01:20;20.23;;;5.90;;
5953;SDS011;3002;42.642;24.812;2022-12-11T13:03:49;14.40;;;4.23;;
5953;SDS011;3002;42.642;24.812;2022-12-11T13:09:12;46.33;;;14.63;;
5953;SDS011;3002;42.642;24.812;2022-12-11T13:11:39;29.30;;;11.97;;
5953;SDS011;3002;42.642;24.812;2022-12-11T13:16:43;26.77;;;8.17;;
5953;SDS011;3002;42.642;24.812;2022-12-11T13:24:27;20.43;;;5.53;;
5953;SDS011;3002;42.642;24.812;2022-12-11T13:26:54;18.13;;;4.80;;
5953;SDS011;3002;42.642;24.812;2022-12-11T13:29:27;23.37;;;7.83;;
5953;SDS011;3002;42.642;24.812;2022-12-11T13:31:58;21.43;;;8.00;;
5953;SDS011;3002;42.642;24.812;2022-12-11T13:34:46;11.53;;;4.10;;
5953;SDS011;3002;42.642;24.812;2022-12-11T13:37:25;23.03;;;9.80;;
5953;SDS011;3002;42.642;24.812;2022-12-11T13:39:59;34.90;;;9.50;;
5953;SDS011;3002;42.642;24.812;2022-12-11T13:42:32;21.80;;;8.63;;
5953;SDS011;3002;42.642;24.812;2022-12-11T13:45:00;22.90;;;7.90;;
5953;SDS011;3002;42.642;24.812;2022-12-11T13:47:27;35.50;;;10.13;;
5953;SDS011;3002;42.642;24.812;2022-12-11T13:49:59;27.27;;;9.40;;
5953;SDS011;3002;42.642;24.812;2022-12-11T13:52:53;24.07;;;8.10;;
5953;SDS011;3002;42.642;24.812;2022-12-11T13:55:26;33.97;;;9.80;;
5953;SDS011;3002;42.642;24.812;2022-12-11T13:57:57;43.13;;;15.67;;
5953;SDS011;3002;42.642;24.812;2022-12-11T14:00:25;25.70;;;8.73;;
5953;SDS011;3002;42.642;24.812;2022-12-11T14:02:57;17.90;;;5.20;;
5953;SDS011;3002;42.642;24.812;2022-12-11T14:05:29;18.73;;;6.20;;
5953;SDS011;3002;42.642;24.812;2022-12-11T14:07:55;11.17;;;3.17;;
5953;SDS011;3002;42.642;24.812;2022-12-11T14:10:23;20.53;;;4.60;;
5953;SDS011;3002;42.642;24.812;2022-12-11T14:12:58;23.67;;;5.53;;
5953;SDS011;3002;42.642;24.812;2022-12-11T14:15:30;41.83;;;10.40;;
5953;SDS011;3002;42.642;24.812;2022-12-11T14:17:57;23.33;;;7.40;;
5953;SDS011;3002;42.642;24.812;2022-12-11T14:20:25;37.27;;;8.30;;
5953;SDS011;3002;42.642;24.812;2022-12-11T14:25:50;22.80;;;6.23;;
5953;SDS011;3002;42.642;24.812;2022-12-11T14:28:26;12.97;;;4.23;;
5953;SDS011;3002;42.642;24.812;2022-12-11T14:30:59;18.50;;;4.90;;
5953;SDS011;3002;42.642;24.812;2022-12-11T14:33:30;12.37;;;4.93;;
5953;SDS011;3002;42.642;24.812;2022-12-11T14:35:58;12.67;;;4.37;;
5953;SDS011;3002;42.642;24.812;2022-12-11T14:38:36;16.10;;;4.00;;
5953;SDS011;3002;42.642;24.812;2022-12-11T14:44:16;12.83;;;4.63;;
5953;SDS011;3002;42.642;24.812;2022-12-11T14:47:03;23.53;;;6.63;;
5953;SDS011;3002;42.642;24.812;2022-12-11T14:52:21;31.27;;;10.17;;
5953;SDS011;3002;42.642;24.812;2022-12-11T14:54:52;16.30;;;6.80;;
5953;SDS011;3002;42.642;24.812;2022-12-11T14:57:22;25.40;;;9.03;;
5953;SDS011;3002;42.642;24.812;2022-12-11T14:59:53;23.40;;;11.43;;
5953;SDS011;3002;42.642;24.812;2022-12-11T15:02:24;33.63;;;10.47;;
5953;SDS011;3002;42.642;24.812;2022-12-11T15:07:52;156.10;;;39.30;;
5953;SDS011;3002;42.642;24.812;2022-12-11T15:10:21;104.23;;;30.73;;
5953;SDS011;3002;42.642;24.812;2022-12-11T15:12:48;52.63;;;20.57;;
5953;SDS011;3002;42.642;24.812;2022-12-11T15:15:14;111.57;;;31.57;;
5953;SDS011;3002;42.642;24.812;2022-12-11T15:17:40;32.77;;;12.80;;
5953;SDS011;3002;42.642;24.812;2022-12-11T15:20:07;16.17;;;4.70;;
5953;SDS011;3002;42.642;24.812;2022-12-11T15:22:40;21.77;;;8.93;;
5953;SDS011;3002;42.642;24.812;2022-12-11T15:25:15;34.43;;;9.90;;
5953;SDS011;3002;42.642;24.812;2022-12-11T15:27:43;88.30;;;25.00;;
5953;SDS011;3002;42.642;24.812;2022-12-11T15:33:00;37.17;;;9.33;;
5953;SDS011;3002;42.642;24.812;2022-12-11T15:35:34;117.73;;;31.83;;
5953;SDS011;3002;42.642;24.812;2022-12-11T15:38:01;124.87;;;31.50;;
5953;SDS011;3002;42.642;24.812;2022-12-11T15:40:27;27.17;;;6.87;;
5953;SDS011;3002;42.642;24.812;2022-12-11T15:42:53;15.50;;;3.93;;
5953;SDS011;3002;42.642;24.812;2022-12-11T15:45:24;12.73;;;3.03;;
5953;SDS011;3002;42.642;24.812;2022-12-11T15:47:53;29.43;;;4.73;;
5953;SDS011;3002;42.642;24.812;2022-12-11T15:50:20;14.97;;;3.23;;
5953;SDS011;3002;42.642;24.812;2022-12-11T15:52:50;7.53;;;2.10;;
5953;SDS011;3002;42.642;24.812;2022-12-11T15:55:17;10.87;;;2.57;;
5953;SDS011;3002;42.642;24.812;2022-12-11T16:00:15;12.83;;;3.87;;
5953;SDS011;3002;42.642;24.812;2022-12-11T16:02:45;15.67;;;4.73;;
5953;SDS011;3002;42.642;24.812;2022-12-11T16:05:11;15.87;;;3.60;;
5953;SDS011;3002;42.642;24.812;2022-12-11T16:07:38;17.03;;;3.70;;
5953;SDS011;3002;42.642;24.812;2022-12-11T16:10:04;12.27;;;4.30;;
5953;SDS011;3002;42.642;24.812;2022-12-11T16:12:37;29.10;;;7.83;;
5953;SDS011;3002;42.642;24.812;2022-12-11T16:15:03;16.50;;;3.47;;
5953;SDS011;3002;42.642;24.812;2022-12-11T16:17:29;21.67;;;4.80;;
5953;SDS011;3002;42.642;24.812;2022-12-11T16:19:55;11.57;;;4.47;;
5953;SDS011;3002;42.642;24.812;2022-12-11T16:22:20;12.80;;;4.80;;